sensor_id;sensor_type;location;lat;lon;timestamp;P1;durP1;ratioP1;P2;durP2;ratioP2
76814;SDS011;65768;49.906;19.384;2022-12-18T00:00:56;64.70;;;20.50;;
76814;SDS011;65768;49.906;19.384;2022-12-18T00:07:52;43.00;;;13.90;;
76814;SDS011;65768;49.906;19.384;2022-12-18T00:10:51;54.40;;;15.50;;
76814;SDS011;65768;49.906;19.384;2022-12-18T00:13:24;31.30;;;10.50;;
76814;SDS011;65768;49.906;19.384;2022-12-18T00:15:52;52.30;;;19.00;;
76814;SDS011;65768;49.906;19.384;2022-12-18T00:18:22;46.50;;;15.30;;
76814;SDS011;65768;49.906;19.384;2022-12-18T00:20:50;32.00;;;12.10;;
76814;SDS011;65768;49.906;19.384;2022-12-18T00:23:18;50.80;;;16.30;;
76814;SDS011;65768;49.906;19.384;2022-12-18T00:25:45;39.60;;;13.20;;
76814;SDS011;65768;49.906;19.384;2022-12-18T00:28:13;32.50;;;12.30;;
76814;SDS011;65768;49.906;19.384;2022-12-18T00:30:41;36.90;;;12.60;;
76814;SDS011;65768;49.906;19.384;2022-12-18T00:33:09;44.50;;;16.00;;
76814;SDS011;65768;49.906;19.384;2022-12-18T00:35:37;29.30;;;8.90;;
76814;SDS011;65768;49.906;19.384;2022-12-18T00:38:05;51.60;;;19.20;;
76814;SDS011;65768;49.906;19.384;2022-12-18T00:40:33;56.90;;;20.70;;
76814;SDS011;65768;49.906;19.384;2022-12-18T00:43:01;51.00;;;15.70;;
76814;SDS011;65768;49.906;19.384;2022-12-18T00:45:30;50.80;;;15.10;;
76814;SDS011;65768;49.906;19.384;2022-12-18T00:47:58;48.20;;;16.70;;
76814;SDS011;65768;49.906;19.384;2022-12-18T00:50:26;42.40;;;12.40;;
76814;SDS011;65768;49.906;19.384;2022-12-18T00:52:54;41.90;;;15.20;;
76814;SDS011;65768;49.906;19.384;2022-12-18T00:55:22;58.00;;;18.40;;
76814;SDS011;65768;49.906;19.384;2022-12-18T00:57:50;56.40;;;18.30;;
76814;SDS011;65768;49.906;19.384;2022-12-18T01:00:20;44.70;;;15.50;;
76814;SDS011;65768;49.906;19.384;2022-12-18T01:02:48;41.40;;;15.60;;
76814;SDS011;65768;49.906;19.384;2022-12-18T01:05:15;51.80;;;15.70;;
76814;SDS011;65768;49.906;19.384;2022-12-18T01:07:43;38.00;;;13.60;;
76814;SDS011;65768;49.906;19.384;2022-12-18T01:10:12;42.10;;;12.10;;
76814;SDS011;65768;49.906;19.384;2022-12-18T01:12:40;35.30;;;11.90;;
76814;SDS011;65768;49.906;19.384;2022-12-18T01:15:09;46.70;;;14.20;;
76814;SDS011;65768;49.906;19.384;2022-12-18T01:17:39;76.00;;;21.10;;
76814;SDS011;65768;49.906;19.384;2022-12-18T01:20:07;56.70;;;19.00;;
76814;SDS011;65768;49.906;19.384;2022-12-18T01:22:36;46.20;;;16.40;;
76814;SDS011;65768;49.906;19.384;2022-12-18T01:25:04;44.30;;;15.60;;
76814;SDS011;65768;49.906;19.384;2022-12-18T01:27:33;60.90;;;18.20;;
76814;SDS011;65768;49.906;19.384;2022-12-18T01:30:01;30.60;;;11.30;;
76814;SDS011;65768;49.906;19.384;2022-12-18T01:32:30;49.90;;;17.80;;
76814;SDS011;65768;49.906;19.384;2022-12-18T01:34:59;31.70;;;11.80;;
76814;SDS011;65768;49.906;19.384;2022-12-18T01:37:27;41.40;;;12.50;;
76814;SDS011;65768;49.906;19.384;2022-12-18T01:39:55;53.30;;;19.10;;
76814;SDS011;65768;49.906;19.384;2022-12-18T01:42:23;71.90;;;24.80;;
76814;SDS011;65768;49.906;19.384;2022-12-18T01:55:52;39.70;;;12.40;;
76814;SDS011;65768;49.906;19.384;2022-12-18T01:58:24;42.60;;;13.60;;
76814;SDS011;65768;49.906;19.384;2022-12-18T02:01:09;45.70;;;14.60;;
76814;SDS011;65768;49.906;19.384;2022-12-18T02:03:37;49.90;;;17.50;;
76814;SDS011;65768;49.906;19.384;2022-12-18T02:06:22;51.40;;;17.70;;
76814;SDS011;65768;49.906;19.384;2022-12-18T02:14:44;37.40;;;14.20;;
76814;SDS011;65768;49.906;19.384;2022-12-18T02:17:28;47.80;;;13.80;;
76814;SDS011;65768;49.906;19.384;2022-12-18T02:20:17;47.00;;;14.90;;
76814;SDS011;65768;49.906;19.384;2022-12-18T02:28:43;39.90;;;11.40;;
76814;SDS011;65768;49.906;19.384;2022-12-18T02:31:16;54.50;;;16.30;;
76814;SDS011;65768;49.906;19.384;2022-12-18T02:33:48;59.70;;;19.70;;
76814;SDS011;65768;49.906;19.384;2022-12-18T02:36:18;63.60;;;18.80;;
76814;SDS011;65768;49.906;19.384;2022-12-18T02:38:48;47.30;;;18.20;;
76814;SDS011;65768;49.906;19.384;2022-12-18T02:41:19;51.90;;;17.10;;
76814;SDS011;65768;49.906;19.384;2022-12-18T02:43:56;43.00;;;15.70;;
76814;SDS011;65768;49.906;19.384;2022-12-18T02:46:36;44.80;;;15.70;;
76814;SDS011;65768;49.906;19.384;2022-12-18T02:54:21;47.00;;;13.60;;
76814;SDS011;65768;49.906;19.384;2022-12-18T02:57:12;49.10;;;14.70;;
76814;SDS011;65768;49.906;19.384;2022-12-18T03:03:38;81.80;;;23.60;;
76814;SDS011;65768;49.906;19.384;2022-12-18T03:06:21;71.30;;;22.00;;
76814;SDS011;65768;49.906;19.384;2022-12-18T03:08:56;58.50;;;17.90;;
76814;SDS011;65768;49.906;19.384;2022-12-18T03:11:28;44.20;;;14.60;;
76814;SDS011;65768;49.906;19.384;2022-12-18T03:14:20;46.30;;;19.20;;
76814;SDS011;65768;49.906;19.384;2022-12-18T03:16:50;29.80;;;10.90;;
76814;SDS011;65768;49.906;19.384;2022-12-18T03:19:23;71.70;;;21.20;;
76814;SDS011;65768;49.906;19.384;2022-12-18T03:24:25;48.80;;;17.10;;
76814;SDS011;65768;49.906;19.384;2022-12-18T03:26:57;46.30;;;14.00;;
76814;SDS011;65768;49.906;19.384;2022-12-18T03:29:40;75.30;;;20.70;;
76814;SDS011;65768;49.906;19.384;2022-12-18T03:32:19;71.70;;;21.30;;
76814;SDS011;65768;49.906;19.384;2022-12-18T03:34:53;58.30;;;18.10;;
76814;SDS011;65768;49.906;19.384;2022-12-18T03:37:27;55.80;;;16.60;;
76814;SDS011;65768;49.906;19.384;2022-12-18T03:39:57;64.00;;;19.50;;
76814;SDS011;65768;49.906;19.384;2022-12-18T03:42:28;54.60;;;17.10;;
76814;SDS011;65768;49.906;19.384;2022-12-18T03:50:21;51.00;;;17.20;;
76814;SDS011;65768;49.906;19.384;2022-12-18T03:52:54;43.40;;;16.00;;
76814;SDS011;65768;49.906;19.384;2022-12-18T03:55:27;64.40;;;20.60;;
76814;SDS011;65768;49.906;19.384;2022-12-18T04:00:30;43.70;;;15.00;;
76814;SDS011;65768;49.906;19.384;2022-12-18T04:02:59;51.50;;;16.80;;
76814;SDS011;65768;49.906;19.384;2022-12-18T04:05:29;40.80;;;16.00;;
76814;SDS011;65768;49.906;19.384;2022-12-18T04:07:59;49.90;;;17.30;;
76814;SDS011;65768;49.906;19.384;2022-12-18T04:10:28;57.60;;;18.60;;
76814;SDS011;65768;49.906;19.384;2022-12-18T04:12:57;47.20;;;17.10;;
76814;SDS011;65768;49.906;19.384;2022-12-18T04:15:25;46.00;;;15.80;;
76814;SDS011;65768;49.906;19.384;2022-12-18T04:17:53;40.20;;;13.10;;
76814;SDS011;65768;49.906;19.384;2022-12-18T04:20:21;46.90;;;15.70;;
76814;SDS011;65768;49.906;19.384;2022-12-18T04:22:49;67.10;;;20.40;;
76814;SDS011;65768;49.906;19.384;2022-12-18T04:25:16;66.70;;;21.90;;
76814;SDS011;65768;49.906;19.384;2022-12-18T04:27:44;58.90;;;17.00;;
76814;SDS011;65768;49.906;19.384;2022-12-18T04:30:12;50.90;;;17.10;;
76814;SDS011;65768;49.906;19.384;2022-12-18T04:32:40;51.10;;;16.80;;
76814;SDS011;65768;49.906;19.384;2022-12-18T04:35:09;46.20;;;15.70;;
76814;SDS011;65768;49.906;19.384;2022-12-18T04:37:38;58.70;;;20.70;;
76814;SDS011;65768;49.906;19.384;2022-12-18T04:40:06;65.00;;;21.60;;
76814;SDS011;65768;49.906;19.384;2022-12-18T04:42:34;58.10;;;21.90;;
76814;SDS011;65768;49.906;19.384;2022-12-18T04:45:02;60.00;;;21.60;;
76814;SDS011;65768;49.906;19.384;2022-12-18T04:47:30;87.10;;;25.40;;
76814;SDS011;65768;49.906;19.384;2022-12-18T04:49:58;89.20;;;29.20;;
76814;SDS011;65768;49.906;19.384;2022-12-18T04:52:26;60.10;;;21.90;;
76814;SDS011;65768;49.906;19.384;2022-12-18T04:54:54;49.30;;;19.10;;
76814;SDS011;65768;49.906;19.384;2022-12-18T04:57:22;53.00;;;19.90;;
76814;SDS011;65768;49.906;19.384;2022-12-18T04:59:50;53.90;;;19.30;;
76814;SDS011;65768;49.906;19.384;2022-12-18T05:02:18;58.30;;;19.10;;
76814;SDS011;65768;49.906;19.384;2022-12-18T05:04:46;52.30;;;18.10;;
76814;SDS011;65768;49.906;19.384;2022-12-18T05:07:14;65.30;;;22.20;;
76814;SDS011;65768;49.906;19.384;2022-12-18T05:09:42;91.20;;;32.70;;
76814;SDS011;65768;49.906;19.384;2022-12-18T05:12:10;89.60;;;26.60;;
76814;SDS011;65768;49.906;19.384;2022-12-18T05:14:37;62.70;;;22.50;;
76814;SDS011;65768;49.906;19.384;2022-12-18T05:17:05;60.90;;;21.30;;
76814;SDS011;65768;49.906;19.384;2022-12-18T05:19:33;62.50;;;20.60;;
76814;SDS011;65768;49.906;19.384;2022-12-18T05:22:01;59.30;;;21.80;;
76814;SDS011;65768;49.906;19.384;2022-12-18T05:24:29;65.00;;;26.40;;
76814;SDS011;65768;49.906;19.384;2022-12-18T05:26:57;62.40;;;20.90;;
76814;SDS011;65768;49.906;19.384;2022-12-18T05:29:25;59.80;;;19.10;;
76814;SDS011;65768;49.906;19.384;2022-12-18T05:31:53;57.40;;;20.90;;
76814;SDS011;65768;49.906;19.384;2022-12-18T05:34:20;71.60;;;26.00;;
76814;SDS011;65768;49.906;19.384;2022-12-18T05:36:48;76.50;;;28.00;;
76814;SDS011;65768;49.906;19.384;2022-12-18T05:39:16;71.10;;;23.00;;
76814;SDS011;65768;49.906;19.384;2022-12-18T05:41:44;62.60;;;20.80;;
76814;SDS011;65768;49.906;19.384;2022-12-18T05:44:12;62.60;;;23.40;;
76814;SDS011;65768;49.906;19.384;2022-12-18T05:46:40;58.30;;;21.20;;
76814;SDS011;65768;49.906;19.384;2022-12-18T05:49:08;59.60;;;21.00;;
76814;SDS011;65768;49.906;19.384;2022-12-18T05:51:36;59.30;;;21.10;;
76814;SDS011;65768;49.906;19.384;2022-12-18T05:54:05;64.80;;;22.50;;
76814;SDS011;65768;49.906;19.384;2022-12-18T05:56:33;58.70;;;19.10;;
76814;SDS011;65768;49.906;19.384;2022-12-18T05:59:01;58.40;;;22.00;;
76814;SDS011;65768;49.906;19.384;2022-12-18T06:01:29;61.30;;;24.80;;
76814;SDS011;65768;49.906;19.384;2022-12-18T06:03:57;60.50;;;23.30;;
76814;SDS011;65768;49.906;19.384;2022-12-18T06:06:26;66.70;;;25.30;;
76814;SDS011;65768;49.906;19.384;2022-12-18T06:08:55;63.60;;;20.90;;
76814;SDS011;65768;49.906;19.384;2022-12-18T06:11:24;50.40;;;18.50;;
76814;SDS011;65768;49.906;19.384;2022-12-18T06:13:54;55.90;;;19.00;;
76814;SDS011;65768;49.906;19.384;2022-12-18T06:16:23;52.30;;;18.00;;
76814;SDS011;65768;49.906;19.384;2022-12-18T06:18:51;52.70;;;18.00;;
76814;SDS011;65768;49.906;19.384;2022-12-18T06:21:19;52.30;;;18.70;;
76814;SDS011;65768;49.906;19.384;2022-12-18T06:23:47;46.00;;;16.80;;
76814;SDS011;65768;49.906;19.384;2022-12-18T06:26:15;57.90;;;19.00;;
76814;SDS011;65768;49.906;19.384;2022-12-18T06:28:43;51.50;;;17.60;;
76814;SDS011;65768;49.906;19.384;2022-12-18T06:31:11;72.60;;;23.10;;
76814;SDS011;65768;49.906;19.384;2022-12-18T06:33:39;59.90;;;22.60;;
76814;SDS011;65768;49.906;19.384;2022-12-18T06:36:09;54.90;;;19.60;;
76814;SDS011;65768;49.906;19.384;2022-12-18T06:38:42;55.30;;;17.70;;
76814;SDS011;65768;49.906;19.384;2022-12-18T06:41:12;52.60;;;16.80;;
76814;SDS011;65768;49.906;19.384;2022-12-18T06:43:42;42.00;;;15.50;;
76814;SDS011;65768;49.906;19.384;2022-12-18T06:46:11;47.80;;;15.70;;
76814;SDS011;65768;49.906;19.384;2022-12-18T06:48:41;41.80;;;14.80;;
76814;SDS011;65768;49.906;19.384;2022-12-18T06:51:09;47.50;;;15.10;;
76814;SDS011;65768;49.906;19.384;2022-12-18T06:53:38;46.20;;;14.50;;
76814;SDS011;65768;49.906;19.384;2022-12-18T06:56:09;33.70;;;12.40;;
76814;SDS011;65768;49.906;19.384;2022-12-18T06:58:41;44.10;;;12.60;;
76814;SDS011;65768;49.906;19.384;2022-12-18T07:01:10;40.90;;;13.50;;
76814;SDS011;65768;49.906;19.384;2022-12-18T07:03:42;39.00;;;15.80;;
76814;SDS011;65768;49.906;19.384;2022-12-18T07:06:28;55.70;;;17.70;;
76814;SDS011;65768;49.906;19.384;2022-12-18T07:08:56;55.40;;;19.40;;
76814;SDS011;65768;49.906;19.384;2022-12-18T07:11:24;45.80;;;15.70;;
76814;SDS011;65768;49.906;19.384;2022-12-18T07:13:52;33.80;;;14.20;;
76814;SDS011;65768;49.906;19.384;2022-12-18T07:16:20;49.50;;;15.90;;
76814;SDS011;65768;49.906;19.384;2022-12-18T07:18:48;49.00;;;15.50;;
76814;SDS011;65768;49.906;19.384;2022-12-18T07:21:18;43.30;;;14.30;;
76814;SDS011;65768;49.906;19.384;2022-12-18T07:23:46;36.20;;;12.40;;
76814;SDS011;65768;49.906;19.384;2022-12-18T07:26:16;46.50;;;15.70;;
76814;SDS011;65768;49.906;19.384;2022-12-18T07:28:45;42.10;;;15.10;;
76814;SDS011;65768;49.906;19.384;2022-12-18T07:31:15;43.40;;;14.60;;
76814;SDS011;65768;49.906;19.384;2022-12-18T07:33:48;44.30;;;16.20;;
76814;SDS011;65768;49.906;19.384;2022-12-18T07:36:16;45.10;;;14.70;;
76814;SDS011;65768;49.906;19.384;2022-12-18T07:38:46;51.10;;;17.30;;
76814;SDS011;65768;49.906;19.384;2022-12-18T07:41:15;59.10;;;17.80;;
76814;SDS011;65768;49.906;19.384;2022-12-18T07:43:44;59.80;;;19.30;;
76814;SDS011;65768;49.906;19.384;2022-12-18T07:46:12;43.20;;;16.00;;
76814;SDS011;65768;49.906;19.384;2022-12-18T07:48:41;39.90;;;14.80;;
76814;SDS011;65768;49.906;19.384;2022-12-18T07:51:10;45.70;;;15.60;;
76814;SDS011;65768;49.906;19.384;2022-12-18T07:53:38;38.00;;;13.50;;
76814;SDS011;65768;49.906;19.384;2022-12-18T07:56:08;42.70;;;13.70;;
76814;SDS011;65768;49.906;19.384;2022-12-18T07:58:37;36.80;;;12.90;;
76814;SDS011;65768;49.906;19.384;2022-12-18T08:01:06;40.10;;;13.60;;
76814;SDS011;65768;49.906;19.384;2022-12-18T08:03:39;49.80;;;15.70;;
76814;SDS011;65768;49.906;19.384;2022-12-18T08:06:08;28.90;;;8.90;;
76814;SDS011;65768;49.906;19.384;2022-12-18T08:08:37;42.30;;;15.80;;
76814;SDS011;65768;49.906;19.384;2022-12-18T08:11:05;45.00;;;15.60;;
76814;SDS011;65768;49.906;19.384;2022-12-18T08:13:33;67.70;;;22.90;;
76814;SDS011;65768;49.906;19.384;2022-12-18T08:16:02;54.70;;;21.70;;
76814;SDS011;65768;49.906;19.384;2022-12-18T08:18:32;47.30;;;16.10;;
76814;SDS011;65768;49.906;19.384;2022-12-18T08:21:10;39.60;;;15.10;;
76814;SDS011;65768;49.906;19.384;2022-12-18T08:23:38;36.00;;;13.90;;
76814;SDS011;65768;49.906;19.384;2022-12-18T08:26:07;40.00;;;13.60;;
76814;SDS011;65768;49.906;19.384;2022-12-18T08:28:35;48.70;;;17.10;;
76814;SDS011;65768;49.906;19.384;2022-12-18T08:31:03;40.40;;;14.60;;
76814;SDS011;65768;49.906;19.384;2022-12-18T08:33:32;38.70;;;12.80;;
76814;SDS011;65768;49.906;19.384;2022-12-18T08:36:00;39.10;;;11.60;;
76814;SDS011;65768;49.906;19.384;2022-12-18T08:38:29;40.50;;;13.40;;
76814;SDS011;65768;49.906;19.384;2022-12-18T08:41:07;31.80;;;12.10;;
76814;SDS011;65768;49.906;19.384;2022-12-18T08:43:37;39.20;;;14.10;;
76814;SDS011;65768;49.906;19.384;2022-12-18T08:46:32;45.90;;;14.10;;
76814;SDS011;65768;49.906;19.384;2022-12-18T08:49:03;39.20;;;12.80;;
76814;SDS011;65768;49.906;19.384;2022-12-18T08:51:31;46.00;;;15.00;;
76814;SDS011;65768;49.906;19.384;2022-12-18T08:54:06;57.70;;;16.00;;
76814;SDS011;65768;49.906;19.384;2022-12-18T08:56:34;44.90;;;15.30;;
76814;SDS011;65768;49.906;19.384;2022-12-18T08:59:02;39.60;;;15.00;;
76814;SDS011;65768;49.906;19.384;2022-12-18T09:01:31;36.40;;;14.00;;
76814;SDS011;65768;49.906;19.384;2022-12-18T09:04:00;44.30;;;14.80;;
76814;SDS011;65768;49.906;19.384;2022-12-18T09:06:28;48.30;;;16.20;;
76814;SDS011;65768;49.906;19.384;2022-12-18T09:08:56;47.70;;;19.50;;
76814;SDS011;65768;49.906;19.384;2022-12-18T09:11:26;55.00;;;20.00;;
76814;SDS011;65768;49.906;19.384;2022-12-18T09:13:55;56.30;;;19.30;;
76814;SDS011;65768;49.906;19.384;2022-12-18T09:16:25;53.50;;;20.30;;
76814;SDS011;65768;49.906;19.384;2022-12-18T09:18:55;50.40;;;17.70;;
76814;SDS011;65768;49.906;19.384;2022-12-18T09:21:28;55.40;;;21.90;;
76814;SDS011;65768;49.906;19.384;2022-12-18T09:23:58;54.70;;;19.40;;
76814;SDS011;65768;49.906;19.384;2022-12-18T09:26:26;42.20;;;13.30;;
76814;SDS011;65768;49.906;19.384;2022-12-18T09:28:55;35.70;;;13.00;;
76814;SDS011;65768;49.906;19.384;2022-12-18T09:31:24;56.20;;;19.30;;
76814;SDS011;65768;49.906;19.384;2022-12-18T09:33:54;45.40;;;16.90;;
76814;SDS011;65768;49.906;19.384;2022-12-18T09:36:25;54.30;;;18.40;;
76814;SDS011;65768;49.906;19.384;2022-12-18T09:38:54;49.60;;;18.60;;
76814;SDS011;65768;49.906;19.384;2022-12-18T09:41:32;55.40;;;18.20;;
76814;SDS011;65768;49.906;19.384;2022-12-18T09:44:10;57.50;;;20.50;;
76814;SDS011;65768;49.906;19.384;2022-12-18T09:46:45;57.90;;;19.90;;
76814;SDS011;65768;49.906;19.384;2022-12-18T09:49:18;48.00;;;15.60;;
76814;SDS011;65768;49.906;19.384;2022-12-18T09:51:56;39.50;;;15.50;;
76814;SDS011;65768;49.906;19.384;2022-12-18T09:54:38;47.60;;;17.90;;
76814;SDS011;65768;49.906;19.384;2022-12-18T09:57:18;44.00;;;13.20;;
76814;SDS011;65768;49.906;19.384;2022-12-18T09:59:56;42.20;;;16.50;;
76814;SDS011;65768;49.906;19.384;2022-12-18T10:02:34;60.90;;;21.80;;
76814;SDS011;65768;49.906;19.384;2022-12-18T10:05:06;63.90;;;24.40;;
76814;SDS011;65768;49.906;19.384;2022-12-18T10:13:23;52.20;;;20.20;;
76814;SDS011;65768;49.906;19.384;2022-12-18T10:16:31;58.40;;;21.10;;
76814;SDS011;65768;49.906;19.384;2022-12-18T10:21:51;62.40;;;24.10;;
76814;SDS011;65768;49.906;19.384;2022-12-18T10:24:44;58.60;;;24.00;;
76814;SDS011;65768;49.906;19.384;2022-12-18T10:27:26;54.80;;;19.80;;
76814;SDS011;65768;49.906;19.384;2022-12-18T10:29:54;42.00;;;16.80;;
76814;SDS011;65768;49.906;19.384;2022-12-18T10:32:24;26.60;;;11.00;;
76814;SDS011;65768;49.906;19.384;2022-12-18T10:34:55;25.50;;;9.30;;
76814;SDS011;65768;49.906;19.384;2022-12-18T10:37:26;29.60;;;12.40;;
76814;SDS011;65768;49.906;19.384;2022-12-18T10:40:06;26.90;;;13.40;;
76814;SDS011;65768;49.906;19.384;2022-12-18T10:42:38;18.90;;;8.70;;
76814;SDS011;65768;49.906;19.384;2022-12-18T10:45:11;24.90;;;9.60;;
76814;SDS011;65768;49.906;19.384;2022-12-18T10:47:49;28.80;;;11.20;;
76814;SDS011;65768;49.906;19.384;2022-12-18T10:50:34;28.30;;;10.90;;
76814;SDS011;65768;49.906;19.384;2022-12-18T10:53:13;22.80;;;8.80;;
76814;SDS011;65768;49.906;19.384;2022-12-18T10:55:50;28.10;;;9.90;;
76814;SDS011;65768;49.906;19.384;2022-12-18T10:58:31;23.60;;;9.10;;
76814;SDS011;65768;49.906;19.384;2022-12-18T11:01:11;28.30;;;10.50;;
76814;SDS011;65768;49.906;19.384;2022-12-18T11:03:44;23.00;;;9.00;;
76814;SDS011;65768;49.906;19.384;2022-12-18T11:06:17;25.70;;;9.60;;
76814;SDS011;65768;49.906;19.384;2022-12-18T11:09:01;28.70;;;11.10;;
76814;SDS011;65768;49.906;19.384;2022-12-18T11:11:36;30.70;;;9.90;;
76814;SDS011;65768;49.906;19.384;2022-12-18T11:14:12;30.30;;;11.20;;
76814;SDS011;65768;49.906;19.384;2022-12-18T11:17:02;33.10;;;11.50;;
76814;SDS011;65768;49.906;19.384;2022-12-18T11:22:16;32.20;;;12.40;;
76814;SDS011;65768;49.906;19.384;2022-12-18T11:24:56;28.00;;;11.10;;
76814;SDS011;65768;49.906;19.384;2022-12-18T11:27:53;35.10;;;12.50;;
76814;SDS011;65768;49.906;19.384;2022-12-18T11:30:39;33.30;;;10.50;;
76814;SDS011;65768;49.906;19.384;2022-12-18T11:33:18;33.00;;;11.30;;
76814;SDS011;65768;49.906;19.384;2022-12-18T11:35:58;25.50;;;9.00;;
76814;SDS011;65768;49.906;19.384;2022-12-18T11:50:43;21.90;;;9.50;;
76814;SDS011;65768;49.906;19.384;2022-12-18T11:53:30;29.00;;;12.20;;
76814;SDS011;65768;49.906;19.384;2022-12-18T11:56:29;36.70;;;11.70;;
76814;SDS011;65768;49.906;19.384;2022-12-18T11:59:05;41.60;;;12.20;;
76814;SDS011;65768;49.906;19.384;2022-12-18T12:01:47;28.00;;;11.80;;
76814;SDS011;65768;49.906;19.384;2022-12-18T12:07:16;32.50;;;12.90;;
76814;SDS011;65768;49.906;19.384;2022-12-18T12:21:36;32.90;;;11.50;;
76814;SDS011;65768;49.906;19.384;2022-12-18T12:24:19;36.20;;;12.10;;
76814;SDS011;65768;49.906;19.384;2022-12-18T12:27:15;33.90;;;12.50;;
76814;SDS011;65768;49.906;19.384;2022-12-18T12:35:46;38.50;;;12.90;;
76814;SDS011;65768;49.906;19.384;2022-12-18T12:38:45;39.60;;;13.10;;
76814;SDS011;65768;49.906;19.384;2022-12-18T12:41:22;37.30;;;14.50;;
76814;SDS011;65768;49.906;19.384;2022-12-18T12:44:13;42.10;;;14.00;;
76814;SDS011;65768;49.906;19.384;2022-12-18T12:46:48;44.30;;;14.20;;
76814;SDS011;65768;49.906;19.384;2022-12-18T12:49:20;34.80;;;14.10;;
76814;SDS011;65768;49.906;19.384;2022-12-18T12:51:58;44.50;;;15.50;;
76814;SDS011;65768;49.906;19.384;2022-12-18T12:54:31;43.80;;;16.20;;
76814;SDS011;65768;49.906;19.384;2022-12-18T12:57:09;44.10;;;14.90;;
76814;SDS011;65768;49.906;19.384;2022-12-18T13:00:11;39.80;;;14.50;;
76814;SDS011;65768;49.906;19.384;2022-12-18T13:02:44;42.60;;;16.10;;
76814;SDS011;65768;49.906;19.384;2022-12-18T13:05:25;45.80;;;15.70;;
76814;SDS011;65768;49.906;19.384;2022-12-18T13:08:03;42.60;;;16.50;;
76814;SDS011;65768;49.906;19.384;2022-12-18T13:10:38;38.10;;;13.90;;
76814;SDS011;65768;49.906;19.384;2022-12-18T13:25:57;41.30;;;13.60;;
76814;SDS011;65768;49.906;19.384;2022-12-18T13:34:23;39.70;;;13.90;;
76814;SDS011;65768;49.906;19.384;2022-12-18T13:36:53;49.50;;;17.30;;
76814;SDS011;65768;49.906;19.384;2022-12-18T13:39:24;47.20;;;15.90;;
76814;SDS011;65768;49.906;19.384;2022-12-18T13:44:37;42.10;;;15.40;;
76814;SDS011;65768;49.906;19.384;2022-12-18T13:50:24;39.70;;;17.20;;
76814;SDS011;65768;49.906;19.384;2022-12-18T13:52:53;45.10;;;19.30;;
76814;SDS011;65768;49.906;19.384;2022-12-18T13:55:21;56.90;;;23.00;;
76814;SDS011;65768;49.906;19.384;2022-12-18T13:57:50;50.50;;;21.90;;
76814;SDS011;65768;49.906;19.384;2022-12-18T14:00:31;56.00;;;21.40;;
76814;SDS011;65768;49.906;19.384;2022-12-18T14:02:59;59.90;;;19.80;;
76814;SDS011;65768;49.906;19.384;2022-12-18T14:05:29;54.80;;;20.20;;
76814;SDS011;65768;49.906;19.384;2022-12-18T14:08:13;53.40;;;20.40;;
76814;SDS011;65768;49.906;19.384;2022-12-18T14:10:43;63.60;;;21.40;;
76814;SDS011;65768;49.906;19.384;2022-12-18T14:13:26;63.50;;;20.30;;
76814;SDS011;65768;49.906;19.384;2022-12-18T14:16:01;58.30;;;19.70;;
76814;SDS011;65768;49.906;19.384;2022-12-18T14:21:18;77.50;;;27.70;;
76814;SDS011;65768;49.906;19.384;2022-12-18T14:24:02;73.90;;;27.40;;
76814;SDS011;65768;49.906;19.384;2022-12-18T14:26:34;67.40;;;25.30;;
76814;SDS011;65768;49.906;19.384;2022-12-18T14:32:14;69.10;;;25.30;;
76814;SDS011;65768;49.906;19.384;2022-12-18T14:37:22;71.70;;;26.70;;
76814;SDS011;65768;49.906;19.384;2022-12-18T14:39:56;62.90;;;26.10;;
76814;SDS011;65768;49.906;19.384;2022-12-18T14:42:28;70.10;;;25.00;;
76814;SDS011;65768;49.906;19.384;2022-12-18T14:48:05;77.70;;;28.20;;
76814;SDS011;65768;49.906;19.384;2022-12-18T14:50:35;71.80;;;25.40;;
76814;SDS011;65768;49.906;19.384;2022-12-18T14:53:03;80.60;;;25.80;;
76814;SDS011;65768;49.906;19.384;2022-12-18T14:55:31;67.80;;;25.30;;
76814;SDS011;65768;49.906;19.384;2022-12-18T14:58:00;66.50;;;25.70;;
76814;SDS011;65768;49.906;19.384;2022-12-18T15:00:28;86.10;;;32.80;;
76814;SDS011;65768;49.906;19.384;2022-12-18T15:02:56;85.50;;;32.20;;
76814;SDS011;65768;49.906;19.384;2022-12-18T15:05:27;75.50;;;31.60;;
76814;SDS011;65768;49.906;19.384;2022-12-18T15:07:58;84.20;;;30.50;;
76814;SDS011;65768;49.906;19.384;2022-12-18T15:10:31;78.00;;;29.70;;
76814;SDS011;65768;49.906;19.384;2022-12-18T15:18:03;85.40;;;31.10;;
76814;SDS011;65768;49.906;19.384;2022-12-18T15:23:14;74.10;;;30.30;;
76814;SDS011;65768;49.906;19.384;2022-12-18T15:26:02;81.00;;;30.50;;
76814;SDS011;65768;49.906;19.384;2022-12-18T15:29:20;79.60;;;28.80;;
76814;SDS011;65768;49.906;19.384;2022-12-18T15:44:23;79.40;;;28.30;;
76814;SDS011;65768;49.906;19.384;2022-12-18T15:51:08;73.00;;;27.40;;
76814;SDS011;65768;49.906;19.384;2022-12-18T15:54:32;73.00;;;26.20;;
76814;SDS011;65768;49.906;19.384;2022-12-18T15:57:34;68.80;;;27.90;;
76814;SDS011;65768;49.906;19.384;2022-12-18T16:00:11;70.80;;;27.60;;
76814;SDS011;65768;49.906;19.384;2022-12-18T16:02:49;75.70;;;30.00;;
76814;SDS011;65768;49.906;19.384;2022-12-18T16:09:26;71.50;;;28.10;;
76814;SDS011;65768;49.906;19.384;2022-12-18T16:11:58;76.40;;;28.20;;
76814;SDS011;65768;49.906;19.384;2022-12-18T16:14:29;83.30;;;27.40;;
76814;SDS011;65768;49.906;19.384;2022-12-18T16:17:02;76.70;;;28.40;;
76814;SDS011;65768;49.906;19.384;2022-12-18T16:20:16;71.50;;;27.30;;
76814;SDS011;65768;49.906;19.384;2022-12-18T16:22:49;74.00;;;24.90;;
76814;SDS011;65768;49.906;19.384;2022-12-18T16:25:26;91.50;;;29.90;;
76814;SDS011;65768;49.906;19.384;2022-12-18T16:27:55;91.40;;;32.40;;
76814;SDS011;65768;49.906;19.384;2022-12-18T16:30:30;102.00;;;31.90;;
76814;SDS011;65768;49.906;19.384;2022-12-18T16:40:28;98.30;;;30.70;;
76814;SDS011;65768;49.906;19.384;2022-12-18T16:43:33;84.30;;;29.80;;
76814;SDS011;65768;49.906;19.384;2022-12-18T16:46:09;80.50;;;27.60;;
76814;SDS011;65768;49.906;19.384;2022-12-18T16:48:45;86.50;;;30.30;;
76814;SDS011;65768;49.906;19.384;2022-12-18T16:51:14;100.20;;;31.10;;
76814;SDS011;65768;49.906;19.384;2022-12-18T16:53:44;77.60;;;30.40;;
76814;SDS011;65768;49.906;19.384;2022-12-18T16:56:12;79.40;;;29.80;;
76814;SDS011;65768;49.906;19.384;2022-12-18T16:58:40;80.10;;;29.30;;
76814;SDS011;65768;49.906;19.384;2022-12-18T17:01:11;90.40;;;31.00;;
76814;SDS011;65768;49.906;19.384;2022-12-18T17:03:40;93.00;;;31.30;;
76814;SDS011;65768;49.906;19.384;2022-12-18T17:06:08;83.80;;;30.90;;
76814;SDS011;65768;49.906;19.384;2022-12-18T17:08:36;86.50;;;29.90;;
76814;SDS011;65768;49.906;19.384;2022-12-18T17:11:07;73.40;;;29.50;;
76814;SDS011;65768;49.906;19.384;2022-12-18T17:13:35;77.50;;;29.20;;
76814;SDS011;65768;49.906;19.384;2022-12-18T17:16:04;66.50;;;27.20;;
76814;SDS011;65768;49.906;19.384;2022-12-18T17:18:33;74.00;;;27.10;;
76814;SDS011;65768;49.906;19.384;2022-12-18T17:21:02;69.70;;;25.30;;
76814;SDS011;65768;49.906;19.384;2022-12-18T17:23:32;79.40;;;28.80;;